EGPG weather

Cumbernauld Airport
Cumbernauld, Scotland, United Kingdom

Public forecast

Using degrees Celsius for public forecast. Weather courtesy of forecast.io.

METAR (pilot weather report)

Closest report is Glasgow International Airport, 16.6 nm (30.7 km) WSW. Retrieved 2019/03/24 10:20 UTC (11 minutes ago):

EGPF 241020Z AUTO 25020G30KT 9999 -RA SCT019/// BKN026/// BKN039/// //////CB 08/05 Q1024

TAF (pilot weather forecast)

Closest forecast is Glasgow International Airport, 16.6 nm (30.7 km) WSW. Retrieved 2019/03/24 06:00 UTC (5 hours ago):

TAF EGPF 240500Z 2406/2506 23014KT 9999 BKN030 TEMPO 2406/2418 8000 -SHRA PROB30 TEMPO 2406/2408 26020G30KT PROB40 TEMPO 2408/2415 28022G37KT 4000 SHRA BKN014 BECMG 2415/2418 29015KT PROB30 TEMPO 2415/2418 30020G30KT BECMG 2418/2421 23009KT